sensor_id;sensor_type;location;lat;lon;timestamp;temperature;humidity
7349;DHT22;13010;-33.424;-70.614;2023-03-09T00:01:34;21.10;99.90
7349;DHT22;13010;-33.424;-70.614;2023-03-09T00:04:23;21.10;99.90
7349;DHT22;13010;-33.424;-70.614;2023-03-09T00:07:12;21.00;99.90
7349;DHT22;13010;-33.424;-70.614;2023-03-09T00:10:02;20.90;99.90
7349;DHT22;13010;-33.424;-70.614;2023-03-09T00:12:52;20.80;99.90
7349;DHT22;13010;-33.424;-70.614;2023-03-09T00:15:41;20.80;99.90
7349;DHT22;13010;-33.424;-70.614;2023-03-09T00:18:30;20.50;99.90
7349;DHT22;13010;-33.424;-70.614;2023-03-09T00:21:19;20.20;99.90
7349;DHT22;13010;-33.424;-70.614;2023-03-09T00:24:21;20.20;99.90
7349;DHT22;13010;-33.424;-70.614;2023-03-09T00:27:13;19.90;99.90
7349;DHT22;13010;-33.424;-70.614;2023-03-09T00:30:02;19.60;99.90
7349;DHT22;13010;-33.424;-70.614;2023-03-09T00:32:53;19.20;99.90
7349;DHT22;13010;-33.424;-70.614;2023-03-09T00:35:43;18.80;99.90
7349;DHT22;13010;-33.424;-70.614;2023-03-09T00:38:32;18.40;99.90
7349;DHT22;13010;-33.424;-70.614;2023-03-09T00:41:23;18.10;99.90
7349;DHT22;13010;-33.424;-70.614;2023-03-09T00:44:15;17.90;99.90
7349;DHT22;13010;-33.424;-70.614;2023-03-09T00:47:03;17.60;99.90
7349;DHT22;13010;-33.424;-70.614;2023-03-09T00:49:52;17.50;99.90
7349;DHT22;13010;-33.424;-70.614;2023-03-09T00:52:41;17.30;99.90
7349;DHT22;13010;-33.424;-70.614;2023-03-09T00:55:30;17.10;99.90
7349;DHT22;13010;-33.424;-70.614;2023-03-09T00:58:21;17.20;99.90
7349;DHT22;13010;-33.424;-70.614;2023-03-09T01:01:12;17.30;99.90
7349;DHT22;13010;-33.424;-70.614;2023-03-09T01:04:01;17.30;99.90
7349;DHT22;13010;-33.424;-70.614;2023-03-09T01:06:51;17.10;99.90
7349;DHT22;13010;-33.424;-70.614;2023-03-09T01:09:41;17.10;99.90
7349;DHT22;13010;-33.424;-70.614;2023-03-09T01:12:30;17.10;99.90
7349;DHT22;13010;-33.424;-70.614;2023-03-09T01:15:21;17.00;99.90
7349;DHT22;13010;-33.424;-70.614;2023-03-09T01:18:10;17.00;99.90
7349;DHT22;13010;-33.424;-70.614;2023-03-09T01:20:59;16.80;99.90
7349;DHT22;13010;-33.424;-70.614;2023-03-09T01:23:48;16.80;99.90
7349;DHT22;13010;-33.424;-70.614;2023-03-09T01:26:37;16.90;99.90
7349;DHT22;13010;-33.424;-70.614;2023-03-09T01:29:25;17.10;99.90
7349;DHT22;13010;-33.424;-70.614;2023-03-09T01:32:16;17.20;99.90
7349;DHT22;13010;-33.424;-70.614;2023-03-09T01:35:05;17.30;99.90
7349;DHT22;13010;-33.424;-70.614;2023-03-09T01:37:54;17.30;99.90
7349;DHT22;13010;-33.424;-70.614;2023-03-09T01:40:45;17.20;99.90
7349;DHT22;13010;-33.424;-70.614;2023-03-09T01:43:36;17.10;99.90
7349;DHT22;13010;-33.424;-70.614;2023-03-09T01:46:45;16.90;99.90
7349;DHT22;13010;-33.424;-70.614;2023-03-09T01:49:39;16.80;99.90
7349;DHT22;13010;-33.424;-70.614;2023-03-09T01:52:31;16.70;99.90
7349;DHT22;13010;-33.424;-70.614;2023-03-09T01:55:23;16.60;99.90
7349;DHT22;13010;-33.424;-70.614;2023-03-09T01:58:15;16.60;99.90
7349;DHT22;13010;-33.424;-70.614;2023-03-09T02:01:05;16.60;99.90
7349;DHT22;13010;-33.424;-70.614;2023-03-09T02:03:59;16.40;99.90
7349;DHT22;13010;-33.424;-70.614;2023-03-09T02:06:52;16.30;99.90
7349;DHT22;13010;-33.424;-70.614;2023-03-09T02:09:46;16.20;99.90
7349;DHT22;13010;-33.424;-70.614;2023-03-09T02:12:36;16.00;99.90
7349;DHT22;13010;-33.424;-70.614;2023-03-09T02:15:26;15.80;99.90
7349;DHT22;13010;-33.424;-70.614;2023-03-09T02:18:15;15.70;99.90
7349;DHT22;13010;-33.424;-70.614;2023-03-09T02:21:08;15.60;99.90
7349;DHT22;13010;-33.424;-70.614;2023-03-09T02:24:06;15.60;99.90
7349;DHT22;13010;-33.424;-70.614;2023-03-09T02:26:57;15.50;99.90
7349;DHT22;13010;-33.424;-70.614;2023-03-09T02:29:49;15.40;99.90
7349;DHT22;13010;-33.424;-70.614;2023-03-09T02:32:39;15.40;99.90
7349;DHT22;13010;-33.424;-70.614;2023-03-09T02:35:28;15.40;99.90
7349;DHT22;13010;-33.424;-70.614;2023-03-09T02:38:17;15.60;99.90
7349;DHT22;13010;-33.424;-70.614;2023-03-09T02:41:09;15.70;99.90
7349;DHT22;13010;-33.424;-70.614;2023-03-09T02:43:59;15.80;99.90
7349;DHT22;13010;-33.424;-70.614;2023-03-09T02:46:49;15.70;99.90
7349;DHT22;13010;-33.424;-70.614;2023-03-09T02:49:38;15.70;99.90
7349;DHT22;13010;-33.424;-70.614;2023-03-09T02:52:27;15.60;99.90
7349;DHT22;13010;-33.424;-70.614;2023-03-09T02:55:16;15.50;99.90
7349;DHT22;13010;-33.424;-70.614;2023-03-09T02:58:05;15.40;99.90
7349;DHT22;13010;-33.424;-70.614;2023-03-09T03:00:53;15.30;99.90
7349;DHT22;13010;-33.424;-70.614;2023-03-09T03:03:44;15.30;99.90
7349;DHT22;13010;-33.424;-70.614;2023-03-09T03:06:33;15.10;99.90
7349;DHT22;13010;-33.424;-70.614;2023-03-09T03:09:22;14.90;99.90
7349;DHT22;13010;-33.424;-70.614;2023-03-09T03:12:12;14.80;99.90
7349;DHT22;13010;-33.424;-70.614;2023-03-09T03:15:00;14.70;99.90
7349;DHT22;13010;-33.424;-70.614;2023-03-09T03:17:50;14.70;99.90
7349;DHT22;13010;-33.424;-70.614;2023-03-09T03:20:41;14.70;99.90
7349;DHT22;13010;-33.424;-70.614;2023-03-09T03:23:30;14.60;99.90
7349;DHT22;13010;-33.424;-70.614;2023-03-09T03:26:19;14.60;99.90
7349;DHT22;13010;-33.424;-70.614;2023-03-09T03:29:08;14.50;99.90
7349;DHT22;13010;-33.424;-70.614;2023-03-09T03:31:56;14.40;99.90
7349;DHT22;13010;-33.424;-70.614;2023-03-09T03:34:45;14.40;99.90
7349;DHT22;13010;-33.424;-70.614;2023-03-09T03:37:36;14.30;99.90
7349;DHT22;13010;-33.424;-70.614;2023-03-09T03:40:25;14.40;99.90
7349;DHT22;13010;-33.424;-70.614;2023-03-09T03:43:13;14.30;99.90
7349;DHT22;13010;-33.424;-70.614;2023-03-09T03:46:03;14.40;99.90
7349;DHT22;13010;-33.424;-70.614;2023-03-09T03:48:52;14.40;99.90
7349;DHT22;13010;-33.424;-70.614;2023-03-09T03:51:40;14.20;99.90
7349;DHT22;13010;-33.424;-70.614;2023-03-09T03:54:31;14.20;99.90
7349;DHT22;13010;-33.424;-70.614;2023-03-09T03:57:20;14.10;99.90
7349;DHT22;13010;-33.424;-70.614;2023-03-09T04:00:10;14.20;99.90
7349;DHT22;13010;-33.424;-70.614;2023-03-09T04:02:59;14.20;99.90
7349;DHT22;13010;-33.424;-70.614;2023-03-09T04:05:48;14.20;99.90
7349;DHT22;13010;-33.424;-70.614;2023-03-09T04:08:37;14.10;99.90
7349;DHT22;13010;-33.424;-70.614;2023-03-09T04:11:29;14.10;99.90
7349;DHT22;13010;-33.424;-70.614;2023-03-09T04:14:18;14.00;99.90
7349;DHT22;13010;-33.424;-70.614;2023-03-09T04:17:07;14.10;99.90
7349;DHT22;13010;-33.424;-70.614;2023-03-09T04:19:56;13.90;99.90
7349;DHT22;13010;-33.424;-70.614;2023-03-09T04:22:46;13.90;99.90
7349;DHT22;13010;-33.424;-70.614;2023-03-09T04:25:36;13.90;99.90
7349;DHT22;13010;-33.424;-70.614;2023-03-09T04:28:28;14.00;99.90
7349;DHT22;13010;-33.424;-70.614;2023-03-09T04:31:18;14.10;99.90
7349;DHT22;13010;-33.424;-70.614;2023-03-09T04:34:07;14.00;99.90
7349;DHT22;13010;-33.424;-70.614;2023-03-09T04:36:56;14.10;99.90
7349;DHT22;13010;-33.424;-70.614;2023-03-09T04:39:46;14.20;99.90
7349;DHT22;13010;-33.424;-70.614;2023-03-09T04:42:35;14.10;99.90
7349;DHT22;13010;-33.424;-70.614;2023-03-09T04:45:26;14.10;99.90
7349;DHT22;13010;-33.424;-70.614;2023-03-09T04:48:16;14.10;99.90
7349;DHT22;13010;-33.424;-70.614;2023-03-09T04:51:05;14.10;99.90
7349;DHT22;13010;-33.424;-70.614;2023-03-09T04:53:54;14.10;99.90
7349;DHT22;13010;-33.424;-70.614;2023-03-09T04:56:44;14.10;99.90
7349;DHT22;13010;-33.424;-70.614;2023-03-09T04:59:33;14.00;99.90
7349;DHT22;13010;-33.424;-70.614;2023-03-09T05:02:24;14.00;99.90
7349;DHT22;13010;-33.424;-70.614;2023-03-09T05:05:14;14.00;99.90
7349;DHT22;13010;-33.424;-70.614;2023-03-09T05:08:06;14.10;99.90
7349;DHT22;13010;-33.424;-70.614;2023-03-09T05:10:56;14.10;99.90
7349;DHT22;13010;-33.424;-70.614;2023-03-09T05:13:45;14.20;99.90
7349;DHT22;13010;-33.424;-70.614;2023-03-09T05:16:34;14.10;99.90
7349;DHT22;13010;-33.424;-70.614;2023-03-09T05:19:27;14.10;99.90
7349;DHT22;13010;-33.424;-70.614;2023-03-09T05:22:16;14.10;99.90
7349;DHT22;13010;-33.424;-70.614;2023-03-09T05:25:05;14.00;99.90
7349;DHT22;13010;-33.424;-70.614;2023-03-09T05:27:55;14.10;99.90
7349;DHT22;13010;-33.424;-70.614;2023-03-09T05:30:45;14.10;99.90
7349;DHT22;13010;-33.424;-70.614;2023-03-09T05:33:36;14.10;99.90
7349;DHT22;13010;-33.424;-70.614;2023-03-09T05:36:27;14.00;99.90
7349;DHT22;13010;-33.424;-70.614;2023-03-09T05:39:17;14.00;99.90
7349;DHT22;13010;-33.424;-70.614;2023-03-09T05:42:06;13.80;99.90
7349;DHT22;13010;-33.424;-70.614;2023-03-09T05:44:56;13.60;99.90
7349;DHT22;13010;-33.424;-70.614;2023-03-09T05:47:45;13.60;99.90
7349;DHT22;13010;-33.424;-70.614;2023-03-09T05:50:34;13.60;99.90
7349;DHT22;13010;-33.424;-70.614;2023-03-09T05:53:26;13.40;99.90
7349;DHT22;13010;-33.424;-70.614;2023-03-09T05:56:16;13.10;99.90
7349;DHT22;13010;-33.424;-70.614;2023-03-09T05:59:06;13.10;99.90
7349;DHT22;13010;-33.424;-70.614;2023-03-09T06:01:55;13.00;99.90
7349;DHT22;13010;-33.424;-70.614;2023-03-09T06:04:50;12.90;99.90
7349;DHT22;13010;-33.424;-70.614;2023-03-09T06:07:39;13.10;99.90
7349;DHT22;13010;-33.424;-70.614;2023-03-09T06:10:30;13.00;99.90
7349;DHT22;13010;-33.424;-70.614;2023-03-09T06:13:19;13.00;99.90
7349;DHT22;13010;-33.424;-70.614;2023-03-09T06:16:10;12.80;99.90
7349;DHT22;13010;-33.424;-70.614;2023-03-09T06:19:00;12.90;99.90
7349;DHT22;13010;-33.424;-70.614;2023-03-09T06:21:49;13.00;99.90
7349;DHT22;13010;-33.424;-70.614;2023-03-09T06:24:37;12.90;99.90
7349;DHT22;13010;-33.424;-70.614;2023-03-09T06:27:28;12.90;99.90
7349;DHT22;13010;-33.424;-70.614;2023-03-09T06:30:17;13.10;99.90
7349;DHT22;13010;-33.424;-70.614;2023-03-09T06:33:07;13.10;99.90
7349;DHT22;13010;-33.424;-70.614;2023-03-09T06:35:56;13.20;99.90
7349;DHT22;13010;-33.424;-70.614;2023-03-09T06:38:48;13.20;99.90
7349;DHT22;13010;-33.424;-70.614;2023-03-09T06:41:37;13.30;99.90
7349;DHT22;13010;-33.424;-70.614;2023-03-09T06:44:29;13.20;99.90
7349;DHT22;13010;-33.424;-70.614;2023-03-09T06:47:21;13.20;99.90
7349;DHT22;13010;-33.424;-70.614;2023-03-09T06:50:10;13.20;99.90
7349;DHT22;13010;-33.424;-70.614;2023-03-09T06:52:59;13.00;99.90
7349;DHT22;13010;-33.424;-70.614;2023-03-09T06:55:47;12.90;99.90
7349;DHT22;13010;-33.424;-70.614;2023-03-09T06:58:36;12.80;99.90
7349;DHT22;13010;-33.424;-70.614;2023-03-09T07:01:27;12.80;99.90
7349;DHT22;13010;-33.424;-70.614;2023-03-09T07:04:16;12.70;99.90
7349;DHT22;13010;-33.424;-70.614;2023-03-09T07:07:05;12.50;99.90
7349;DHT22;13010;-33.424;-70.614;2023-03-09T07:09:54;12.50;99.90
7349;DHT22;13010;-33.424;-70.614;2023-03-09T07:12:43;12.40;99.90
7349;DHT22;13010;-33.424;-70.614;2023-03-09T07:15:32;12.30;99.90
7349;DHT22;13010;-33.424;-70.614;2023-03-09T07:18:22;12.30;99.90
7349;DHT22;13010;-33.424;-70.614;2023-03-09T07:21:11;12.30;99.90
7349;DHT22;13010;-33.424;-70.614;2023-03-09T07:24:00;12.40;99.90
7349;DHT22;13010;-33.424;-70.614;2023-03-09T07:26:49;12.20;99.90
7349;DHT22;13010;-33.424;-70.614;2023-03-09T07:29:38;12.20;99.90
7349;DHT22;13010;-33.424;-70.614;2023-03-09T07:32:26;12.70;99.90
7349;DHT22;13010;-33.424;-70.614;2023-03-09T07:35:17;12.80;99.90
7349;DHT22;13010;-33.424;-70.614;2023-03-09T07:38:06;12.80;99.90
7349;DHT22;13010;-33.424;-70.614;2023-03-09T07:40:57;13.00;99.90
7349;DHT22;13010;-33.424;-70.614;2023-03-09T07:43:46;12.90;99.90
7349;DHT22;13010;-33.424;-70.614;2023-03-09T07:46:35;12.70;99.90
7349;DHT22;13010;-33.424;-70.614;2023-03-09T07:49:24;12.50;99.90
7349;DHT22;13010;-33.424;-70.614;2023-03-09T07:52:15;12.40;99.90
7349;DHT22;13010;-33.424;-70.614;2023-03-09T07:55:04;12.20;99.90
7349;DHT22;13010;-33.424;-70.614;2023-03-09T07:57:53;12.10;99.90
7349;DHT22;13010;-33.424;-70.614;2023-03-09T08:00:42;12.10;99.90
7349;DHT22;13010;-33.424;-70.614;2023-03-09T08:03:31;12.10;99.90
7349;DHT22;13010;-33.424;-70.614;2023-03-09T08:06:21;12.30;99.90
7349;DHT22;13010;-33.424;-70.614;2023-03-09T08:09:13;12.10;99.90
7349;DHT22;13010;-33.424;-70.614;2023-03-09T08:12:03;12.00;99.90
7349;DHT22;13010;-33.424;-70.614;2023-03-09T08:14:52;12.20;99.90
7349;DHT22;13010;-33.424;-70.614;2023-03-09T08:17:41;12.20;99.90
7349;DHT22;13010;-33.424;-70.614;2023-03-09T08:20:30;12.00;99.90
7349;DHT22;13010;-33.424;-70.614;2023-03-09T08:23:19;12.10;99.90
7349;DHT22;13010;-33.424;-70.614;2023-03-09T08:26:11;12.10;99.90
7349;DHT22;13010;-33.424;-70.614;2023-03-09T08:29:00;12.20;99.90
7349;DHT22;13010;-33.424;-70.614;2023-03-09T08:31:49;12.10;99.90
7349;DHT22;13010;-33.424;-70.614;2023-03-09T08:34:38;12.00;99.90
7349;DHT22;13010;-33.424;-70.614;2023-03-09T08:37:27;11.90;99.90
7349;DHT22;13010;-33.424;-70.614;2023-03-09T08:40:16;11.90;99.90
7349;DHT22;13010;-33.424;-70.614;2023-03-09T08:43:08;11.80;99.90
7349;DHT22;13010;-33.424;-70.614;2023-03-09T08:45:57;11.80;99.90
7349;DHT22;13010;-33.424;-70.614;2023-03-09T08:48:47;12.10;99.90
7349;DHT22;13010;-33.424;-70.614;2023-03-09T08:51:36;12.00;99.90
7349;DHT22;13010;-33.424;-70.614;2023-03-09T08:54:25;11.90;99.90
7349;DHT22;13010;-33.424;-70.614;2023-03-09T08:57:14;11.80;99.90
7349;DHT22;13010;-33.424;-70.614;2023-03-09T09:00:05;11.70;99.90
7349;DHT22;13010;-33.424;-70.614;2023-03-09T09:02:55;11.80;99.90
7349;DHT22;13010;-33.424;-70.614;2023-03-09T09:05:44;11.80;99.90
7349;DHT22;13010;-33.424;-70.614;2023-03-09T09:08:34;11.80;99.90
7349;DHT22;13010;-33.424;-70.614;2023-03-09T09:11:23;12.10;99.90
7349;DHT22;13010;-33.424;-70.614;2023-03-09T09:14:13;12.00;99.90
7349;DHT22;13010;-33.424;-70.614;2023-03-09T09:17:04;12.10;99.90
7349;DHT22;13010;-33.424;-70.614;2023-03-09T09:19:54;12.10;99.90
7349;DHT22;13010;-33.424;-70.614;2023-03-09T09:22:43;12.10;99.90
7349;DHT22;13010;-33.424;-70.614;2023-03-09T09:25:32;12.10;99.90
7349;DHT22;13010;-33.424;-70.614;2023-03-09T09:28:21;12.00;99.90
7349;DHT22;13010;-33.424;-70.614;2023-03-09T09:31:12;12.00;99.90
7349;DHT22;13010;-33.424;-70.614;2023-03-09T09:34:03;11.80;99.90
7349;DHT22;13010;-33.424;-70.614;2023-03-09T09:36:53;11.70;99.90
7349;DHT22;13010;-33.424;-70.614;2023-03-09T09:39:43;11.70;99.90
7349;DHT22;13010;-33.424;-70.614;2023-03-09T09:42:34;11.60;99.90
7349;DHT22;13010;-33.424;-70.614;2023-03-09T09:45:34;11.70;99.90
7349;DHT22;13010;-33.424;-70.614;2023-03-09T09:48:23;11.70;99.90
7349;DHT22;13010;-33.424;-70.614;2023-03-09T09:54:31;11.80;99.90
7349;DHT22;13010;-33.424;-70.614;2023-03-09T09:57:23;11.90;99.90
7349;DHT22;13010;-33.424;-70.614;2023-03-09T10:00:19;11.90;99.90
7349;DHT22;13010;-33.424;-70.614;2023-03-09T10:03:14;11.70;99.90
7349;DHT22;13010;-33.424;-70.614;2023-03-09T10:06:12;11.80;99.90
7349;DHT22;13010;-33.424;-70.614;2023-03-09T10:09:07;12.10;99.90
7349;DHT22;13010;-33.424;-70.614;2023-03-09T10:12:01;12.10;99.90
7349;DHT22;13010;-33.424;-70.614;2023-03-09T10:14:54;12.00;99.90
7349;DHT22;13010;-33.424;-70.614;2023-03-09T10:17:49;11.90;99.90
7349;DHT22;13010;-33.424;-70.614;2023-03-09T10:20:42;11.90;99.90
7349;DHT22;13010;-33.424;-70.614;2023-03-09T10:23:34;11.60;99.90
7349;DHT22;13010;-33.424;-70.614;2023-03-09T10:26:33;11.40;99.90
7349;DHT22;13010;-33.424;-70.614;2023-03-09T10:29:37;11.30;99.90
7349;DHT22;13010;-33.424;-70.614;2023-03-09T10:32:35;11.30;99.90
7349;DHT22;13010;-33.424;-70.614;2023-03-09T10:35:30;11.30;99.90
7349;DHT22;13010;-33.424;-70.614;2023-03-09T10:38:22;11.50;99.90
7349;DHT22;13010;-33.424;-70.614;2023-03-09T10:41:14;11.60;99.90
7349;DHT22;13010;-33.424;-70.614;2023-03-09T10:44:07;11.70;99.90
7349;DHT22;13010;-33.424;-70.614;2023-03-09T10:46:57;11.80;99.90
7349;DHT22;13010;-33.424;-70.614;2023-03-09T10:50:08;12.20;99.90
7349;DHT22;13010;-33.424;-70.614;2023-03-09T10:53:13;12.60;99.90
7349;DHT22;13010;-33.424;-70.614;2023-03-09T10:56:12;12.90;99.90
7349;DHT22;13010;-33.424;-70.614;2023-03-09T10:59:17;13.10;99.90
7349;DHT22;13010;-33.424;-70.614;2023-03-09T11:02:27;13.30;99.90
7349;DHT22;13010;-33.424;-70.614;2023-03-09T11:05:20;13.30;99.90
7349;DHT22;13010;-33.424;-70.614;2023-03-09T11:08:22;13.20;99.90
7349;DHT22;13010;-33.424;-70.614;2023-03-09T11:11:18;13.40;99.90
7349;DHT22;13010;-33.424;-70.614;2023-03-09T11:14:25;13.50;99.90
7349;DHT22;13010;-33.424;-70.614;2023-03-09T11:17:33;13.60;99.90
7349;DHT22;13010;-33.424;-70.614;2023-03-09T11:20:26;14.00;99.90
7349;DHT22;13010;-33.424;-70.614;2023-03-09T11:23:22;14.30;99.90
7349;DHT22;13010;-33.424;-70.614;2023-03-09T11:26:16;14.60;99.90
7349;DHT22;13010;-33.424;-70.614;2023-03-09T11:29:20;14.90;99.90
7349;DHT22;13010;-33.424;-70.614;2023-03-09T11:32:16;15.30;99.90
7349;DHT22;13010;-33.424;-70.614;2023-03-09T11:35:16;15.30;99.90
7349;DHT22;13010;-33.424;-70.614;2023-03-09T11:38:10;15.20;99.90
7349;DHT22;13010;-33.424;-70.614;2023-03-09T11:41:07;15.10;99.90
7349;DHT22;13010;-33.424;-70.614;2023-03-09T11:44:01;15.10;99.90
7349;DHT22;13010;-33.424;-70.614;2023-03-09T11:46:56;15.20;99.90
7349;DHT22;13010;-33.424;-70.614;2023-03-09T11:49:48;15.40;99.90
7349;DHT22;13010;-33.424;-70.614;2023-03-09T11:52:40;15.60;99.90
7349;DHT22;13010;-33.424;-70.614;2023-03-09T11:55:33;15.70;99.90
7349;DHT22;13010;-33.424;-70.614;2023-03-09T11:58:27;15.90;99.90
7349;DHT22;13010;-33.424;-70.614;2023-03-09T12:01:21;16.20;99.90
7349;DHT22;13010;-33.424;-70.614;2023-03-09T12:04:23;16.40;99.90
7349;DHT22;13010;-33.424;-70.614;2023-03-09T12:07:19;16.50;99.90
7349;DHT22;13010;-33.424;-70.614;2023-03-09T12:10:16;16.50;99.90
7349;DHT22;13010;-33.424;-70.614;2023-03-09T12:13:13;16.90;99.90
7349;DHT22;13010;-33.424;-70.614;2023-03-09T12:16:04;17.20;99.90
7349;DHT22;13010;-33.424;-70.614;2023-03-09T12:19:00;17.50;99.90
7349;DHT22;13010;-33.424;-70.614;2023-03-09T12:22:01;18.20;99.90
7349;DHT22;13010;-33.424;-70.614;2023-03-09T12:24:55;18.70;99.90
7349;DHT22;13010;-33.424;-70.614;2023-03-09T12:27:48;18.50;99.90
7349;DHT22;13010;-33.424;-70.614;2023-03-09T12:30:50;18.20;99.90
7349;DHT22;13010;-33.424;-70.614;2023-03-09T12:34:04;18.00;99.90
7349;DHT22;13010;-33.424;-70.614;2023-03-09T12:40:29;17.50;99.90
7349;DHT22;13010;-33.424;-70.614;2023-03-09T12:43:51;17.40;99.90
7349;DHT22;13010;-33.424;-70.614;2023-03-09T12:47:00;17.20;99.90
7349;DHT22;13010;-33.424;-70.614;2023-03-09T12:49:51;17.20;99.90
7349;DHT22;13010;-33.424;-70.614;2023-03-09T12:52:57;17.00;99.90
7349;DHT22;13010;-33.424;-70.614;2023-03-09T12:55:49;17.20;99.90
7349;DHT22;13010;-33.424;-70.614;2023-03-09T12:58:44;17.30;99.90
7349;DHT22;13010;-33.424;-70.614;2023-03-09T13:01:36;17.50;99.90
7349;DHT22;13010;-33.424;-70.614;2023-03-09T13:04:26;17.70;99.90
7349;DHT22;13010;-33.424;-70.614;2023-03-09T13:07:17;17.90;99.90
7349;DHT22;13010;-33.424;-70.614;2023-03-09T13:10:20;18.00;99.90
7349;DHT22;13010;-33.424;-70.614;2023-03-09T13:13:43;17.90;99.90
7349;DHT22;13010;-33.424;-70.614;2023-03-09T13:16:53;18.20;99.90
7349;DHT22;13010;-33.424;-70.614;2023-03-09T13:19:53;18.40;99.90
7349;DHT22;13010;-33.424;-70.614;2023-03-09T13:22:43;19.00;99.90
7349;DHT22;13010;-33.424;-70.614;2023-03-09T13:25:47;19.00;99.90
7349;DHT22;13010;-33.424;-70.614;2023-03-09T13:28:40;19.40;99.90
7349;DHT22;13010;-33.424;-70.614;2023-03-09T13:31:32;19.70;99.90
7349;DHT22;13010;-33.424;-70.614;2023-03-09T13:34:24;20.10;99.90
7349;DHT22;13010;-33.424;-70.614;2023-03-09T13:37:15;20.50;99.90
7349;DHT22;13010;-33.424;-70.614;2023-03-09T13:40:21;20.30;99.90
7349;DHT22;13010;-33.424;-70.614;2023-03-09T13:43:17;20.20;99.90
7349;DHT22;13010;-33.424;-70.614;2023-03-09T13:46:14;20.90;99.90
7349;DHT22;13010;-33.424;-70.614;2023-03-09T13:49:07;21.90;99.90
7349;DHT22;13010;-33.424;-70.614;2023-03-09T13:52:01;21.20;99.90
7349;DHT22;13010;-33.424;-70.614;2023-03-09T13:54:52;21.40;99.90
7349;DHT22;13010;-33.424;-70.614;2023-03-09T13:57:42;21.80;99.90
7349;DHT22;13010;-33.424;-70.614;2023-03-09T14:00:33;22.80;99.90
7349;DHT22;13010;-33.424;-70.614;2023-03-09T14:03:24;23.70;99.90
7349;DHT22;13010;-33.424;-70.614;2023-03-09T14:06:15;24.50;99.90
7349;DHT22;13010;-33.424;-70.614;2023-03-09T14:09:23;26.00;99.90
7349;DHT22;13010;-33.424;-70.614;2023-03-09T14:12:26;27.70;99.90
7349;DHT22;13010;-33.424;-70.614;2023-03-09T14:15:18;25.60;99.90
7349;DHT22;13010;-33.424;-70.614;2023-03-09T14:18:23;24.80;99.90
7349;DHT22;13010;-33.424;-70.614;2023-03-09T14:21:20;25.10;99.90
7349;DHT22;13010;-33.424;-70.614;2023-03-09T14:24:20;27.20;99.90
7349;DHT22;13010;-33.424;-70.614;2023-03-09T14:27:22;26.50;99.90
7349;DHT22;13010;-33.424;-70.614;2023-03-09T14:30:34;26.20;99.90
7349;DHT22;13010;-33.424;-70.614;2023-03-09T14:33:29;27.00;99.90
7349;DHT22;13010;-33.424;-70.614;2023-03-09T14:36:20;27.60;99.90
7349;DHT22;13010;-33.424;-70.614;2023-03-09T14:39:23;30.00;99.90
7349;DHT22;13010;-33.424;-70.614;2023-03-09T14:42:29;29.70;99.90
7349;DHT22;13010;-33.424;-70.614;2023-03-09T14:45:23;29.30;99.90
7349;DHT22;13010;-33.424;-70.614;2023-03-09T14:48:12;28.60;99.90
7349;DHT22;13010;-33.424;-70.614;2023-03-09T14:51:07;28.50;99.90
7349;DHT22;13010;-33.424;-70.614;2023-03-09T14:53:59;28.00;99.90
7349;DHT22;13010;-33.424;-70.614;2023-03-09T14:56:48;27.60;99.90
7349;DHT22;13010;-33.424;-70.614;2023-03-09T14:59:37;26.50;99.90
7349;DHT22;13010;-33.424;-70.614;2023-03-09T15:02:26;26.40;99.90
7349;DHT22;13010;-33.424;-70.614;2023-03-09T15:05:17;27.30;99.90
7349;DHT22;13010;-33.424;-70.614;2023-03-09T15:08:09;28.10;99.90
7349;DHT22;13010;-33.424;-70.614;2023-03-09T15:10:58;27.10;99.90
7349;DHT22;13010;-33.424;-70.614;2023-03-09T15:13:47;26.50;99.90
7349;DHT22;13010;-33.424;-70.614;2023-03-09T15:16:36;28.10;99.90
7349;DHT22;13010;-33.424;-70.614;2023-03-09T15:19:26;30.40;99.90
7349;DHT22;13010;-33.424;-70.614;2023-03-09T15:22:15;30.40;99.90
7349;DHT22;13010;-33.424;-70.614;2023-03-09T15:25:10;29.20;99.90
7349;DHT22;13010;-33.424;-70.614;2023-03-09T15:27:59;29.40;99.90
7349;DHT22;13010;-33.424;-70.614;2023-03-09T15:30:48;29.60;99.90
7349;DHT22;13010;-33.424;-70.614;2023-03-09T15:33:37;29.00;99.90
7349;DHT22;13010;-33.424;-70.614;2023-03-09T15:36:26;27.90;99.90
7349;DHT22;13010;-33.424;-70.614;2023-03-09T15:39:15;27.40;99.90
7349;DHT22;13010;-33.424;-70.614;2023-03-09T15:42:06;27.30;99.90
7349;DHT22;13010;-33.424;-70.614;2023-03-09T15:44:55;27.00;99.90
7349;DHT22;13010;-33.424;-70.614;2023-03-09T15:47:47;27.40;99.90
7349;DHT22;13010;-33.424;-70.614;2023-03-09T15:50:36;27.40;99.90
7349;DHT22;13010;-33.424;-70.614;2023-03-09T15:53:25;27.80;99.90
7349;DHT22;13010;-33.424;-70.614;2023-03-09T15:56:15;27.20;99.90
7349;DHT22;13010;-33.424;-70.614;2023-03-09T15:59:07;27.00;99.90
7349;DHT22;13010;-33.424;-70.614;2023-03-09T16:01:56;27.70;99.90
7349;DHT22;13010;-33.424;-70.614;2023-03-09T16:04:45;28.40;99.90
7349;DHT22;13010;-33.424;-70.614;2023-03-09T16:07:35;27.30;99.90
7349;DHT22;13010;-33.424;-70.614;2023-03-09T16:10:25;27.40;99.90
7349;DHT22;13010;-33.424;-70.614;2023-03-09T16:13:14;27.40;99.90
7349;DHT22;13010;-33.424;-70.614;2023-03-09T16:16:08;27.40;99.90
7349;DHT22;13010;-33.424;-70.614;2023-03-09T16:18:58;27.50;99.90
7349;DHT22;13010;-33.424;-70.614;2023-03-09T16:21:49;26.90;99.90
7349;DHT22;13010;-33.424;-70.614;2023-03-09T16:24:38;26.90;99.90
7349;DHT22;13010;-33.424;-70.614;2023-03-09T16:27:30;26.00;99.90
7349;DHT22;13010;-33.424;-70.614;2023-03-09T16:30:37;26.70;99.90
7349;DHT22;13010;-33.424;-70.614;2023-03-09T16:33:31;27.20;99.90
7349;DHT22;13010;-33.424;-70.614;2023-03-09T16:36:20;26.60;99.90
7349;DHT22;13010;-33.424;-70.614;2023-03-09T16:39:10;26.30;99.90
7349;DHT22;13010;-33.424;-70.614;2023-03-09T16:41:59;26.80;99.90
7349;DHT22;13010;-33.424;-70.614;2023-03-09T16:44:48;26.50;99.90
7349;DHT22;13010;-33.424;-70.614;2023-03-09T16:47:39;26.30;99.90
7349;DHT22;13010;-33.424;-70.614;2023-03-09T16:50:30;25.30;99.90
7349;DHT22;13010;-33.424;-70.614;2023-03-09T16:53:19;25.70;99.90
7349;DHT22;13010;-33.424;-70.614;2023-03-09T16:56:11;25.80;99.90
7349;DHT22;13010;-33.424;-70.614;2023-03-09T16:59:00;25.40;99.90
7349;DHT22;13010;-33.424;-70.614;2023-03-09T17:01:49;25.80;99.90
7349;DHT22;13010;-33.424;-70.614;2023-03-09T17:04:38;25.90;99.90
7349;DHT22;13010;-33.424;-70.614;2023-03-09T17:07:32;26.00;99.90
7349;DHT22;13010;-33.424;-70.614;2023-03-09T17:10:21;25.70;99.90
7349;DHT22;13010;-33.424;-70.614;2023-03-09T17:51:55;26.70;99.90
7349;DHT22;13010;-33.424;-70.614;2023-03-09T17:54:45;30.20;99.90
7349;DHT22;13010;-33.424;-70.614;2023-03-09T17:57:34;29.80;99.90
7349;DHT22;13010;-33.424;-70.614;2023-03-09T18:00:23;29.00;99.90
7349;DHT22;13010;-33.424;-70.614;2023-03-09T18:03:12;29.60;99.90
7349;DHT22;13010;-33.424;-70.614;2023-03-09T18:06:01;28.80;99.90
7349;DHT22;13010;-33.424;-70.614;2023-03-09T18:08:52;27.60;99.90
7349;DHT22;13010;-33.424;-70.614;2023-03-09T18:11:41;27.60;99.90
7349;DHT22;13010;-33.424;-70.614;2023-03-09T18:14:30;27.60;99.90
7349;DHT22;13010;-33.424;-70.614;2023-03-09T18:17:19;28.70;99.90
7349;DHT22;13010;-33.424;-70.614;2023-03-09T18:20:09;29.40;99.90